Flight Briefing for CPX450

Departure Arrival
Miami International Airport (KMIA)
Click to view FAA NOTAMS
Chicago/Rockford International Airport (KRFD)
Click to view FAA NOTAMS
Departure Time Arrival Time
1900 UTC 2200 UTC
Aircraft Distance
B757-200SF 1139nm
Departure METAR Arrival METAR
KMIA 212153Z 11011KT 10SM FEW044 FEW060 FEW250 31/19 A2992 RMK AO2 SLP133 T03060189 KRFD 212154Z 08020G32KT 10SM OVC060 13/04 A2995 RMK AO2 PK WND 07032/2150 PRESFR SLP145 T01280044
Suggested Route
WINCO2 WINCO J73 LAL CTY J91 ATL VARNM GLAZR Q118 HEVAN Q118 MZZ JOT


View recent IFR Routes data
Notes



Charts and Procedures

Charts for KMIA
No chart available
Charts for KRFD
No chart available

Windy.com Weather Map